sensor_id;sensor_type;location;lat;lon;timestamp;pressure;altitude;pressure_sealevel;temperature;humidity
61506;BME280;47366;51.916;4.574;2023-12-14T00:01:24;101172.63;;;6.10;100.00
61506;BME280;47366;51.916;4.574;2023-12-14T00:03:49;101169.94;;;6.10;100.00
61506;BME280;47366;51.916;4.574;2023-12-14T00:06:15;101177.13;;;6.09;100.00
61506;BME280;47366;51.916;4.574;2023-12-14T00:08:40;101180.66;;;6.11;100.00
61506;BME280;47366;51.916;4.574;2023-12-14T00:11:07;101191.38;;;6.13;100.00
61506;BME280;47366;51.916;4.574;2023-12-14T00:13:33;101191.38;;;6.13;100.00
61506;BME280;47366;51.916;4.574;2023-12-14T00:15:59;101186.97;;;6.10;100.00
61506;BME280;47366;51.916;4.574;2023-12-14T00:18:24;101202.81;;;6.18;100.00
61506;BME280;47366;51.916;4.574;2023-12-14T00:20:50;101209.28;;;6.12;100.00
61506;BME280;47366;51.916;4.574;2023-12-14T00:23:15;101212.75;;;6.16;100.00
61506;BME280;47366;51.916;4.574;2023-12-14T00:25:41;101213.22;;;6.04;100.00
61506;BME280;47366;51.916;4.574;2023-12-14T00:28:06;101221.22;;;6.05;100.00
61506;BME280;47366;51.916;4.574;2023-12-14T00:30:31;101228.41;;;6.05;100.00
61506;BME280;47366;51.916;4.574;2023-12-14T00:32:57;101230.06;;;6.09;100.00
61506;BME280;47366;51.916;4.574;2023-12-14T00:35:22;101226.59;;;6.05;100.00
61506;BME280;47366;51.916;4.574;2023-12-14T00:37:47;101233.84;;;6.03;100.00
61506;BME280;47366;51.916;4.574;2023-12-14T00:40:13;101233.75;;;6.06;100.00
61506;BME280;47366;51.916;4.574;2023-12-14T00:42:38;101245.16;;;6.13;100.00
61506;BME280;47366;51.916;4.574;2023-12-14T00:45:04;101246.19;;;6.09;100.00
61506;BME280;47366;51.916;4.574;2023-12-14T00:47:29;101236.72;;;5.99;100.00
61506;BME280;47366;51.916;4.574;2023-12-14T00:49:54;101257.81;;;6.09;100.00
61506;BME280;47366;51.916;4.574;2023-12-14T00:52:20;101256.16;;;6.05;100.00
61506;BME280;47366;51.916;4.574;2023-12-14T00:54:45;101264.97;;;6.10;100.00
61506;BME280;47366;51.916;4.574;2023-12-14T00:57:11;101264.97;;;6.10;100.00
61506;BME280;47366;51.916;4.574;2023-12-14T00:59:36;101272.25;;;6.07;100.00
61506;BME280;47366;51.916;4.574;2023-12-14T01:02:01;101277.59;;;6.08;100.00
61506;BME280;47366;51.916;4.574;2023-12-14T01:04:27;101289.22;;;6.09;100.00
61506;BME280;47366;51.916;4.574;2023-12-14T01:06:52;101299.16;;;6.07;100.00
61506;BME280;47366;51.916;4.574;2023-12-14T01:09:17;101301.09;;;6.03;100.00
61506;BME280;47366;51.916;4.574;2023-12-14T01:11:42;101298.56;;;5.99;100.00
61506;BME280;47366;51.916;4.574;2023-12-14T01:14:08;101288.97;;;5.90;100.00
61506;BME280;47366;51.916;4.574;2023-12-14T01:16:33;101303.22;;;5.92;100.00
61506;BME280;47366;51.916;4.574;2023-12-14T01:18:58;101315.88;;;5.88;100.00
61506;BME280;47366;51.916;4.574;2023-12-14T01:21:24;101320.53;;;5.83;100.00
61506;BME280;47366;51.916;4.574;2023-12-14T01:23:50;101329.56;;;5.82;100.00
61506;BME280;47366;51.916;4.574;2023-12-14T01:26:15;101326.06;;;5.79;100.00
61506;BME280;47366;51.916;4.574;2023-12-14T01:28:40;101330.69;;;5.75;100.00
61506;BME280;47366;51.916;4.574;2023-12-14T01:31:06;101333.16;;;5.81;100.00
61506;BME280;47366;51.916;4.574;2023-12-14T01:33:31;101339.50;;;5.79;100.00
61506;BME280;47366;51.916;4.574;2023-12-14T01:35:56;101334.94;;;5.82;100.00
61506;BME280;47366;51.916;4.574;2023-12-14T01:38:22;101339.59;;;5.77;100.00
61506;BME280;47366;51.916;4.574;2023-12-14T01:40:47;101357.28;;;5.84;100.00
61506;BME280;47366;51.916;4.574;2023-12-14T01:43:12;101366.25;;;5.83;100.00
61506;BME280;47366;51.916;4.574;2023-12-14T01:45:38;101369.72;;;5.87;100.00
61506;BME280;47366;51.916;4.574;2023-12-14T01:48:06;101377.84;;;5.85;100.00
61506;BME280;47366;51.916;4.574;2023-12-14T01:50:31;101376.25;;;5.80;100.00
61506;BME280;47366;51.916;4.574;2023-12-14T01:52:57;101385.91;;;5.85;100.00
61506;BME280;47366;51.916;4.574;2023-12-14T01:55:22;101383.34;;;5.81;100.00
61506;BME280;47366;51.916;4.574;2023-12-14T01:57:47;101397.44;;;5.89;100.00
61506;BME280;47366;51.916;4.574;2023-12-14T02:00:22;101396.50;;;5.90;100.00
61506;BME280;47366;51.916;4.574;2023-12-14T02:02:51;101397.44;;;5.89;100.00
61506;BME280;47366;51.916;4.574;2023-12-14T02:05:16;101400.13;;;5.89;100.00
61506;BME280;47366;51.916;4.574;2023-12-14T02:07:42;101403.69;;;5.89;100.00
61506;BME280;47366;51.916;4.574;2023-12-14T02:10:07;101404.69;;;5.87;100.00
61506;BME280;47366;51.916;4.574;2023-12-14T02:12:33;101409.06;;;5.89;100.00
61506;BME280;47366;51.916;4.574;2023-12-14T02:14:59;101410.09;;;5.85;100.00
61506;BME280;47366;51.916;4.574;2023-12-14T02:17:24;101417.28;;;5.85;100.00
61506;BME280;47366;51.916;4.574;2023-12-14T02:19:50;101424.31;;;5.89;100.00
61506;BME280;47366;51.916;4.574;2023-12-14T02:22:16;101426.09;;;5.88;100.00
61506;BME280;47366;51.916;4.574;2023-12-14T02:24:42;101427.09;;;5.86;100.00
61506;BME280;47366;51.916;4.574;2023-12-14T02:27:08;101419.25;;;5.80;100.00
61506;BME280;47366;51.916;4.574;2023-12-14T02:29:33;101440.69;;;5.81;100.00
61506;BME280;47366;51.916;4.574;2023-12-14T02:31:58;101446.84;;;5.85;100.00
61506;BME280;47366;51.916;4.574;2023-12-14T02:34:24;101446.13;;;5.80;100.00
61506;BME280;47366;51.916;4.574;2023-12-14T02:36:50;101448.66;;;5.84;100.00
61506;BME280;47366;51.916;4.574;2023-12-14T02:39:15;101447.88;;;5.81;100.00
61506;BME280;47366;51.916;4.574;2023-12-14T02:41:40;101449.69;;;5.80;100.00
61506;BME280;47366;51.916;4.574;2023-12-14T02:44:06;101451.72;;;5.72;100.00
61506;BME280;47366;51.916;4.574;2023-12-14T02:46:31;101454.47;;;5.70;100.00
61506;BME280;47366;51.916;4.574;2023-12-14T02:48:56;101458.84;;;5.74;100.00
61506;BME280;47366;51.916;4.574;2023-12-14T02:51:22;101459.59;;;5.78;100.00
61506;BME280;47366;51.916;4.574;2023-12-14T02:53:47;101461.56;;;5.73;100.00
61506;BME280;47366;51.916;4.574;2023-12-14T02:56:12;101456.19;;;5.73;100.00
61506;BME280;47366;51.916;4.574;2023-12-14T02:58:38;101455.34;;;5.71;100.00
61506;BME280;47366;51.916;4.574;2023-12-14T03:01:03;101459.97;;;5.67;100.00
61506;BME280;47366;51.916;4.574;2023-12-14T03:03:29;101460.84;;;5.68;100.00
61506;BME280;47366;51.916;4.574;2023-12-14T03:05:54;101471.47;;;5.71;100.00
61506;BME280;47366;51.916;4.574;2023-12-14T03:08:20;101459.19;;;5.62;100.00
61506;BME280;47366;51.916;4.574;2023-12-14T03:10:45;101475.19;;;5.67;100.00
61506;BME280;47366;51.916;4.574;2023-12-14T03:13:11;101474.44;;;5.62;100.00
61506;BME280;47366;51.916;4.574;2023-12-14T03:15:36;101494.00;;;5.67;100.00
61506;BME280;47366;51.916;4.574;2023-12-14T03:18:02;101488.72;;;5.64;100.00
61506;BME280;47366;51.916;4.574;2023-12-14T03:20:29;101490.41;;;5.68;100.00
61506;BME280;47366;51.916;4.574;2023-12-14T03:22:54;101475.47;;;5.58;100.00
61506;BME280;47366;51.916;4.574;2023-12-14T03:25:19;101481.63;;;5.61;100.00
61506;BME280;47366;51.916;4.574;2023-12-14T03:27:45;101482.41;;;5.65;100.00
61506;BME280;47366;51.916;4.574;2023-12-14T03:30:10;101487.72;;;5.68;100.00
61506;BME280;47366;51.916;4.574;2023-12-14T03:32:36;101487.78;;;5.65;100.00
61506;BME280;47366;51.916;4.574;2023-12-14T03:35:02;101487.00;;;5.61;100.00
61506;BME280;47366;51.916;4.574;2023-12-14T03:37:27;101486.31;;;5.54;100.00
61506;BME280;47366;51.916;4.574;2023-12-14T03:39:52;101490.84;;;5.52;100.00
61506;BME280;47366;51.916;4.574;2023-12-14T03:42:18;101497.03;;;5.56;100.00
61506;BME280;47366;51.916;4.574;2023-12-14T03:44:43;101504.16;;;5.57;100.00
61506;BME280;47366;51.916;4.574;2023-12-14T03:47:08;101500.69;;;5.53;100.00
61506;BME280;47366;51.916;4.574;2023-12-14T03:49:37;101504.22;;;5.56;100.00
61506;BME280;47366;51.916;4.574;2023-12-14T03:52:04;101500.94;;;5.46;100.00
61506;BME280;47366;51.916;4.574;2023-12-14T03:54:29;101516.59;;;5.60;100.00
61506;BME280;47366;51.916;4.574;2023-12-14T03:56:54;101518.38;;;5.61;100.00
61506;BME280;47366;51.916;4.574;2023-12-14T03:59:20;101521.97;;;5.60;100.00
61506;BME280;47366;51.916;4.574;2023-12-14T04:01:45;101526.63;;;5.54;100.00
61506;BME280;47366;51.916;4.574;2023-12-14T04:04:10;101517.66;;;5.56;100.00
61506;BME280;47366;51.916;4.574;2023-12-14T04:06:36;101520.41;;;5.52;100.00
61506;BME280;47366;51.916;4.574;2023-12-14T04:09:01;101532.94;;;5.53;100.00
61506;BME280;47366;51.916;4.574;2023-12-14T04:11:26;101542.84;;;5.51;100.00
61506;BME280;47366;51.916;4.574;2023-12-14T04:13:52;101553.47;;;5.56;100.00
61506;BME280;47366;51.916;4.574;2023-12-14T04:16:21;101553.63;;;5.50;100.00
61506;BME280;47366;51.916;4.574;2023-12-14T04:18:47;101554.66;;;5.46;100.00
61506;BME280;47366;51.916;4.574;2023-12-14T04:21:13;101554.59;;;5.47;100.00
61506;BME280;47366;51.916;4.574;2023-12-14T04:23:38;101556.38;;;5.48;100.00
61506;BME280;47366;51.916;4.574;2023-12-14T04:26:04;101553.75;;;5.45;100.00
61506;BME280;47366;51.916;4.574;2023-12-14T04:28:29;101565.44;;;5.44;100.00
61506;BME280;47366;51.916;4.574;2023-12-14T04:30:54;101567.13;;;5.48;100.00
61506;BME280;47366;51.916;4.574;2023-12-14T04:33:20;101572.38;;;5.53;100.00
61506;BME280;47366;51.916;4.574;2023-12-14T04:35:45;101589.25;;;5.57;100.00
61506;BME280;47366;51.916;4.574;2023-12-14T04:38:10;101606.34;;;5.54;100.00
61506;BME280;47366;51.916;4.574;2023-12-14T04:40:36;101601.00;;;5.52;100.00
61506;BME280;47366;51.916;4.574;2023-12-14T04:43:01;101597.41;;;5.53;100.00
61506;BME280;47366;51.916;4.574;2023-12-14T04:45:27;101607.97;;;5.60;100.00
61506;BME280;47366;51.916;4.574;2023-12-14T04:47:52;101613.56;;;5.52;100.00
61506;BME280;47366;51.916;4.574;2023-12-14T04:50:18;101628.78;;;5.53;100.00
61506;BME280;47366;51.916;4.574;2023-12-14T04:52:43;101634.94;;;5.57;100.00
61506;BME280;47366;51.916;4.574;2023-12-14T04:55:08;101647.53;;;5.54;100.00
61506;BME280;47366;51.916;4.574;2023-12-14T04:57:34;101653.75;;;5.57;100.00
61506;BME280;47366;51.916;4.574;2023-12-14T05:00:00;101650.34;;;5.50;100.00
61506;BME280;47366;51.916;4.574;2023-12-14T05:02:25;101661.19;;;5.47;100.00
61506;BME280;47366;51.916;4.574;2023-12-14T05:04:50;101674.53;;;5.50;100.00
61506;BME280;47366;51.916;4.574;2023-12-14T05:07:16;101680.72;;;5.53;100.00
61506;BME280;47366;51.916;4.574;2023-12-14T05:09:41;101670.19;;;5.46;100.00
61506;BME280;47366;51.916;4.574;2023-12-14T05:12:06;101687.13;;;5.48;100.00
61506;BME280;47366;51.916;4.574;2023-12-14T05:14:32;101680.94;;;5.46;100.00
61506;BME280;47366;51.916;4.574;2023-12-14T05:16:57;101695.91;;;5.54;100.00
61506;BME280;47366;51.916;4.574;2023-12-14T05:19:23;101693.28;;;5.53;100.00
61506;BME280;47366;51.916;4.574;2023-12-14T05:21:48;101692.31;;;5.56;100.00
61506;BME280;47366;51.916;4.574;2023-12-14T05:24:14;101694.09;;;5.55;100.00
61506;BME280;47366;51.916;4.574;2023-12-14T05:26:39;101695.91;;;5.54;100.00
61506;BME280;47366;51.916;4.574;2023-12-14T05:29:04;101694.16;;;5.53;100.00
61506;BME280;47366;51.916;4.574;2023-12-14T05:31:29;101696.88;;;5.52;100.00
61506;BME280;47366;51.916;4.574;2023-12-14T05:33:55;101703.19;;;5.51;100.00
61506;BME280;47366;51.916;4.574;2023-12-14T05:36:20;101688.09;;;5.45;100.00
61506;BME280;47366;51.916;4.574;2023-12-14T05:38:46;101696.16;;;5.45;100.00
61506;BME280;47366;51.916;4.574;2023-12-14T05:41:11;101698.91;;;5.44;100.00
61506;BME280;47366;51.916;4.574;2023-12-14T05:43:37;101695.47;;;5.39;100.00
61506;BME280;47366;51.916;4.574;2023-12-14T05:46:02;101705.19;;;5.43;100.00
61506;BME280;47366;51.916;4.574;2023-12-14T05:48:29;101704.28;;;5.44;100.00
61506;BME280;47366;51.916;4.574;2023-12-14T05:50:55;101716.78;;;5.45;100.00
61506;BME280;47366;51.916;4.574;2023-12-14T05:53:21;101726.56;;;5.47;100.00
61506;BME280;47366;51.916;4.574;2023-12-14T05:55:46;101731.03;;;5.48;100.00
61506;BME280;47366;51.916;4.574;2023-12-14T05:58:12;101738.22;;;5.46;100.00
61506;BME280;47366;51.916;4.574;2023-12-14T06:00:37;101741.06;;;5.40;100.00
61506;BME280;47366;51.916;4.574;2023-12-14T06:03:04;101741.13;;;5.39;100.00
61506;BME280;47366;51.916;4.574;2023-12-14T06:05:29;101743.94;;;5.34;100.00
61506;BME280;47366;51.916;4.574;2023-12-14T06:07:55;101743.84;;;5.37;100.00
61506;BME280;47366;51.916;4.574;2023-12-14T06:10:20;101745.72;;;5.33;100.00
61506;BME280;47366;51.916;4.574;2023-12-14T06:12:46;101747.59;;;5.31;100.00
61506;BME280;47366;51.916;4.574;2023-12-14T06:15:12;101758.31;;;5.31;100.00
61506;BME280;47366;51.916;4.574;2023-12-14T06:17:37;101752.03;;;5.31;100.00
61506;BME280;47366;51.916;4.574;2023-12-14T06:20:05;101768.09;;;5.34;100.00
61506;BME280;47366;51.916;4.574;2023-12-14T06:22:31;101777.91;;;5.35;100.00
61506;BME280;47366;51.916;4.574;2023-12-14T06:24:57;101782.53;;;5.30;100.00
61506;BME280;47366;51.916;4.574;2023-12-14T06:27:22;101792.34;;;5.31;100.00
61506;BME280;47366;51.916;4.574;2023-12-14T06:29:52;101786.19;;;5.27;100.00
61506;BME280;47366;51.916;4.574;2023-12-14T06:32:17;101789.72;;;5.28;100.00
61506;BME280;47366;51.916;4.574;2023-12-14T06:34:43;101803.25;;;5.25;100.00
61506;BME280;47366;51.916;4.574;2023-12-14T06:37:08;101815.81;;;5.23;100.00
61506;BME280;47366;51.916;4.574;2023-12-14T06:39:34;101818.50;;;5.23;100.00
61506;BME280;47366;51.916;4.574;2023-12-14T06:42:00;101821.19;;;5.23;100.00
61506;BME280;47366;51.916;4.574;2023-12-14T06:44:25;101822.09;;;5.22;100.00
61506;BME280;47366;51.916;4.574;2023-12-14T06:46:53;101830.25;;;5.19;100.00
61506;BME280;47366;51.916;4.574;2023-12-14T06:49:18;101832.94;;;5.17;100.00
61506;BME280;47366;51.916;4.574;2023-12-14T06:51:43;101838.41;;;5.14;100.00
61506;BME280;47366;51.916;4.574;2023-12-14T06:54:09;101846.38;;;5.17;100.00
61506;BME280;47366;51.916;4.574;2023-12-14T06:56:36;101849.03;;;5.19;100.00
61506;BME280;47366;51.916;4.574;2023-12-14T06:59:02;101857.97;;;5.19;100.00
61506;BME280;47366;51.916;4.574;2023-12-14T07:01:27;101865.16;;;5.19;100.00
61506;BME280;47366;51.916;4.574;2023-12-14T07:03:53;101857.19;;;5.16;100.00
61506;BME280;47366;51.916;4.574;2023-12-14T07:06:19;101859.09;;;5.10;100.00
61506;BME280;47366;51.916;4.574;2023-12-14T07:08:44;101857.34;;;5.08;100.00
61506;BME280;47366;51.916;4.574;2023-12-14T07:11:11;101864.59;;;5.04;100.00
61506;BME280;47366;51.916;4.574;2023-12-14T07:13:37;101874.44;;;5.05;100.00
61506;BME280;47366;51.916;4.574;2023-12-14T07:16:07;101861.13;;;4.99;100.00
61506;BME280;47366;51.916;4.574;2023-12-14T07:18:39;101871.78;;;5.02;100.00
61506;BME280;47366;51.916;4.574;2023-12-14T07:21:05;101885.19;;;5.04;100.00
61506;BME280;47366;51.916;4.574;2023-12-14T07:23:31;101887.91;;;5.02;100.00
61506;BME280;47366;51.916;4.574;2023-12-14T07:25:57;101883.56;;;4.97;100.00
61506;BME280;47366;51.916;4.574;2023-12-14T07:28:22;101883.47;;;5.00;100.00
61506;BME280;47366;51.916;4.574;2023-12-14T07:30:48;101881.06;;;4.87;100.00
61506;BME280;47366;51.916;4.574;2023-12-14T07:33:14;101900.72;;;4.88;100.00
61506;BME280;47366;51.916;4.574;2023-12-14T07:35:40;101898.13;;;4.85;100.00
61506;BME280;47366;51.916;4.574;2023-12-14T07:38:05;101902.53;;;4.87;100.00
61506;BME280;47366;51.916;4.574;2023-12-14T07:40:31;101896.38;;;4.82;100.00
61506;BME280;47366;51.916;4.574;2023-12-14T07:42:56;101919.41;;;4.94;100.00
61506;BME280;47366;51.916;4.574;2023-12-14T07:45:21;101909.53;;;4.95;100.00
61506;BME280;47366;51.916;4.574;2023-12-14T07:47:46;101900.72;;;4.89;100.00
61506;BME280;47366;51.916;4.574;2023-12-14T07:50:12;101897.94;;;4.94;100.00
61506;BME280;47366;51.916;4.574;2023-12-14T07:52:38;101893.59;;;4.87;100.00
61506;BME280;47366;51.916;4.574;2023-12-14T07:55:05;101918.53;;;4.94;100.00
61506;BME280;47366;51.916;4.574;2023-12-14T07:57:30;101920.31;;;4.93;100.00
61506;BME280;47366;51.916;4.574;2023-12-14T07:59:56;101923.00;;;4.93;100.00
61506;BME280;47366;51.916;4.574;2023-12-14T08:02:22;101916.78;;;4.91;100.00
61506;BME280;47366;51.916;4.574;2023-12-14T08:04:47;101920.28;;;4.95;100.00
61506;BME280;47366;51.916;4.574;2023-12-14T08:07:12;101918.47;;;4.95;100.00
61506;BME280;47366;51.916;4.574;2023-12-14T08:09:38;101926.50;;;4.97;100.00
61506;BME280;47366;51.916;4.574;2023-12-14T08:12:04;101919.41;;;4.94;100.00
61506;BME280;47366;51.916;4.574;2023-12-14T08:14:32;101934.69;;;4.90;100.00
61506;BME280;47366;51.916;4.574;2023-12-14T08:16:58;101948.97;;;4.93;100.00
61506;BME280;47366;51.916;4.574;2023-12-14T08:19:23;101951.72;;;4.88;100.00
61506;BME280;47366;51.916;4.574;2023-12-14T08:21:48;101957.16;;;4.86;100.00
61506;BME280;47366;51.916;4.574;2023-12-14T08:24:13;101959.78;;;4.88;100.00
61506;BME280;47366;51.916;4.574;2023-12-14T08:26:39;101954.56;;;4.82;100.00
61506;BME280;47366;51.916;4.574;2023-12-14T08:29:04;101979.53;;;4.85;100.00
61506;BME280;47366;51.916;4.574;2023-12-14T08:31:29;101986.59;;;4.91;100.00
61506;BME280;47366;51.916;4.574;2023-12-14T08:33:55;101977.69;;;4.87;100.00
61506;BME280;47366;51.916;4.574;2023-12-14T08:36:20;101994.66;;;4.91;100.00
61506;BME280;47366;51.916;4.574;2023-12-14T08:38:45;101999.09;;;4.92;100.00
61506;BME280;47366;51.916;4.574;2023-12-14T08:41:14;102008.78;;;4.99;100.00
61506;BME280;47366;51.916;4.574;2023-12-14T08:43:40;102015.88;;;5.03;100.00
61506;BME280;47366;51.916;4.574;2023-12-14T08:46:05;102026.53;;;5.08;100.00
61506;BME280;47366;51.916;4.574;2023-12-14T08:48:30;102019.28;;;5.11;100.00
61506;BME280;47366;51.916;4.574;2023-12-14T08:50:56;102020.13;;;5.14;100.00
61506;BME280;47366;51.916;4.574;2023-12-14T08:53:21;102017.44;;;5.15;100.00
61506;BME280;47366;51.916;4.574;2023-12-14T08:55:46;102032.50;;;5.22;100.00
61506;BME280;47366;51.916;4.574;2023-12-14T08:58:12;102035.91;;;5.32;100.00
61506;BME280;47366;51.916;4.574;2023-12-14T09:00:37;102031.38;;;5.34;100.00
61506;BME280;47366;51.916;4.574;2023-12-14T09:03:03;102037.47;;;5.41;100.00
61506;BME280;47366;51.916;4.574;2023-12-14T09:05:30;102038.25;;;5.47;100.00
61506;BME280;47366;51.916;4.574;2023-12-14T09:07:55;102042.56;;;5.54;100.00
61506;BME280;47366;51.916;4.574;2023-12-14T09:10:22;102042.44;;;5.61;100.00
61506;BME280;47366;51.916;4.574;2023-12-14T09:12:48;102051.22;;;5.69;100.00
61506;BME280;47366;51.916;4.574;2023-12-14T09:15:13;102054.84;;;5.68;100.00
61506;BME280;47366;51.916;4.574;2023-12-14T09:17:40;102047.78;;;5.62;100.00
61506;BME280;47366;51.916;4.574;2023-12-14T09:20:08;102050.38;;;5.67;100.00
61506;BME280;47366;51.916;4.574;2023-12-14T09:22:33;102046.72;;;5.69;100.00
61506;BME280;47366;51.916;4.574;2023-12-14T09:24:59;102057.63;;;5.63;100.00
61506;BME280;47366;51.916;4.574;2023-12-14T09:27:24;102067.41;;;5.67;100.00
61506;BME280;47366;51.916;4.574;2023-12-14T09:29:49;102067.44;;;5.64;100.00
61506;BME280;47366;51.916;4.574;2023-12-14T09:32:15;102062.94;;;5.65;100.00
61506;BME280;47366;51.916;4.574;2023-12-14T09:34:42;102074.66;;;5.62;100.00
61506;BME280;47366;51.916;4.574;2023-12-14T09:37:07;102064.91;;;5.58;100.00
61506;BME280;47366;51.916;4.574;2023-12-14T09:39:33;102088.00;;;5.67;100.00
61506;BME280;47366;51.916;4.574;2023-12-14T09:42:05;102078.25;;;5.63;100.00
61506;BME280;47366;51.916;4.574;2023-12-14T09:44:31;102081.75;;;5.66;100.00
61506;BME280;47366;51.916;4.574;2023-12-14T09:47:00;102096.03;;;5.70;100.00
61506;BME280;47366;51.916;4.574;2023-12-14T09:49:35;102102.38;;;5.66;100.00
61506;BME280;47366;51.916;4.574;2023-12-14T09:52:01;102113.88;;;5.72;100.00
61506;BME280;47366;51.916;4.574;2023-12-14T09:54:27;102114.69;;;5.76;100.00
61506;BME280;47366;51.916;4.574;2023-12-14T09:56:53;102120.00;;;5.79;100.00
61506;BME280;47366;51.916;4.574;2023-12-14T09:59:19;102119.09;;;5.79;100.00
61506;BME280;47366;51.916;4.574;2023-12-14T10:01:45;102120.91;;;5.80;100.00
61506;BME280;47366;51.916;4.574;2023-12-14T10:04:16;102114.69;;;5.76;100.00
61506;BME280;47366;51.916;4.574;2023-12-14T10:06:43;102119.09;;;5.80;100.00
61506;BME280;47366;51.916;4.574;2023-12-14T10:09:09;102110.16;;;5.78;100.00
61506;BME280;47366;51.916;4.574;2023-12-14T10:11:38;102119.00;;;5.85;100.00
61506;BME280;47366;51.916;4.574;2023-12-14T10:14:17;102130.56;;;5.88;100.00
61506;BME280;47366;51.916;4.574;2023-12-14T10:16:42;102132.28;;;5.94;100.00
61506;BME280;47366;51.916;4.574;2023-12-14T10:19:08;102114.31;;;5.93;100.00
61506;BME280;47366;51.916;4.574;2023-12-14T10:21:34;102118.59;;;6.05;100.00
61506;BME280;47366;51.916;4.574;2023-12-14T10:24:00;102115.78;;;6.11;100.00
61506;BME280;47366;51.916;4.574;2023-12-14T10:26:25;102127.13;;;6.24;100.00
61506;BME280;47366;51.916;4.574;2023-12-14T10:28:52;102117.03;;;6.33;100.00
61506;BME280;47366;51.916;4.574;2023-12-14T10:31:18;102120.16;;;6.52;100.00
61506;BME280;47366;51.916;4.574;2023-12-14T10:33:47;102127.84;;;6.69;100.00
61506;BME280;47366;51.916;4.574;2023-12-14T10:36:13;102124.91;;;6.78;100.00
61506;BME280;47366;51.916;4.574;2023-12-14T10:38:40;102139.66;;;6.98;100.00
61506;BME280;47366;51.916;4.574;2023-12-14T10:41:09;102142.91;;;7.12;100.00
61506;BME280;47366;51.916;4.574;2023-12-14T10:43:36;102148.13;;;7.18;100.00
61506;BME280;47366;51.916;4.574;2023-12-14T10:46:04;102161.59;;;7.18;100.00
61506;BME280;47366;51.916;4.574;2023-12-14T10:48:30;102153.66;;;7.12;100.00
61506;BME280;47366;51.916;4.574;2023-12-14T10:50:57;102145.03;;;6.99;98.33
61506;BME280;47366;51.916;4.574;2023-12-14T10:53:24;102147.84;;;6.95;98.26
61506;BME280;47366;51.916;4.574;2023-12-14T10:55:51;102146.56;;;7.10;98.31
61506;BME280;47366;51.916;4.574;2023-12-14T10:58:19;102164.19;;;7.23;98.90
61506;BME280;47366;51.916;4.574;2023-12-14T11:00:58;102153.50;;;7.20;100.00
61506;BME280;47366;51.916;4.574;2023-12-14T11:03:25;102166.97;;;7.20;100.00
61506;BME280;47366;51.916;4.574;2023-12-14T11:05:51;102168.22;;;7.05;100.00
61506;BME280;47366;51.916;4.574;2023-12-14T11:08:16;102177.34;;;6.99;100.00
61506;BME280;47366;51.916;4.574;2023-12-14T11:10:52;102162.50;;;6.83;100.00
61506;BME280;47366;51.916;4.574;2023-12-14T11:13:21;102161.72;;;6.78;100.00
61506;BME280;47366;51.916;4.574;2023-12-14T11:15:50;102162.81;;;6.71;100.00
61506;BME280;47366;51.916;4.574;2023-12-14T11:18:23;102166.59;;;6.62;100.00
61506;BME280;47366;51.916;4.574;2023-12-14T11:20:59;102174.00;;;6.52;100.00
61506;BME280;47366;51.916;4.574;2023-12-14T11:25:52;102172.13;;;6.56;100.00
61506;BME280;47366;51.916;4.574;2023-12-14T11:28:18;102171.38;;;6.51;100.00
61506;BME280;47366;51.916;4.574;2023-12-14T11:30:44;102184.75;;;6.54;100.00
61506;BME280;47366;51.916;4.574;2023-12-14T11:33:13;102191.03;;;6.53;100.00
61506;BME280;47366;51.916;4.574;2023-12-14T11:35:40;102192.94;;;6.49;100.00
61506;BME280;47366;51.916;4.574;2023-12-14T11:38:06;102198.28;;;6.51;100.00
61506;BME280;47366;51.916;4.574;2023-12-14T11:40:44;102186.78;;;6.43;100.00
61506;BME280;47366;51.916;4.574;2023-12-14T11:43:10;102195.72;;;6.45;100.00
61506;BME280;47366;51.916;4.574;2023-12-14T11:45:37;102180.81;;;6.30;100.00
61506;BME280;47366;51.916;4.574;2023-12-14T11:48:04;102194.00;;;6.41;100.00
61506;BME280;47366;51.916;4.574;2023-12-14T11:50:31;102195.91;;;6.37;100.00
61506;BME280;47366;51.916;4.574;2023-12-14T11:52:59;102200.34;;;6.38;100.00
61506;BME280;47366;51.916;4.574;2023-12-14T11:55:25;102188.88;;;6.30;100.00
61506;BME280;47366;51.916;4.574;2023-12-14T11:57:51;102195.25;;;6.26;100.00
61506;BME280;47366;51.916;4.574;2023-12-14T12:00:17;102198.81;;;6.26;100.00
61506;BME280;47366;51.916;4.574;2023-12-14T12:02:42;102197.94;;;6.26;100.00
61506;BME280;47366;51.916;4.574;2023-12-14T12:05:07;102209.63;;;6.25;100.00
61506;BME280;47366;51.916;4.574;2023-12-14T12:07:33;102206.03;;;6.24;100.00
61506;BME280;47366;51.916;4.574;2023-12-14T12:09:59;102212.38;;;6.22;100.00
61506;BME280;47366;51.916;4.574;2023-12-14T12:12:25;102223.09;;;6.23;100.00
61506;BME280;47366;51.916;4.574;2023-12-14T12:14:50;102209.66;;;6.22;100.00
61506;BME280;47366;51.916;4.574;2023-12-14T12:17:18;102213.28;;;6.21;100.00
61506;BME280;47366;51.916;4.574;2023-12-14T12:19:45;102210.50;;;6.25;100.00
61506;BME280;47366;51.916;4.574;2023-12-14T12:22:10;102199.81;;;6.22;100.00
61506;BME280;47366;51.916;4.574;2023-12-14T12:24:36;102203.34;;;6.24;100.00
61506;BME280;47366;51.916;4.574;2023-12-14T12:27:01;102200.75;;;6.20;100.00
61506;BME280;47366;51.916;4.574;2023-12-14T12:29:26;102206.00;;;6.26;100.00
61506;BME280;47366;51.916;4.574;2023-12-14T12:31:52;102202.34;;;6.30;100.00
61506;BME280;47366;51.916;4.574;2023-12-14T12:34:17;102202.38;;;6.27;100.00
61506;BME280;47366;51.916;4.574;2023-12-14T12:36:43;102202.44;;;6.25;100.00
61506;BME280;47366;51.916;4.574;2023-12-14T12:39:08;102198.88;;;6.25;100.00
61506;BME280;47366;51.916;4.574;2023-12-14T12:41:34;102203.22;;;6.30;100.00
61506;BME280;47366;51.916;4.574;2023-12-14T12:44:02;102211.25;;;6.32;100.00
61506;BME280;47366;51.916;4.574;2023-12-14T12:46:35;102210.31;;;6.34;100.00